| time (UTC) | temp F | wind direction | speed MPH | gust MPH | rain 1hr in | rain 24hr in | rain mn in | humidity % | barometer mb |
| 20260507093526 | 57 | 177 | 2.0 | 7.0 | 0.00 | 0.00 | 0.00 | 58 | 1014.4 |
| 20260507093025 | 57 | 171 | 2.0 | 7.0 | 0.00 | 0.00 | 0.00 | 58 | 1014.3 |
| 20260507092530 | 57 | 172 | 1.0 | 7.0 | 0.00 | 0.00 | 0.00 | 58 | 1014.4 |
| 20260507092020 | 57 | 179 | 4.0 | 7.0 | 0.00 | 0.00 | 0.00 | 56 | 1014.3 |
| 20260507091543 | 57 | 214 | 0.0 | 6.0 | 0.00 | 0.00 | 0.00 | 57 | 1014.3 |
| 20260507091026 | 57 | 190 | 1.0 | 10.0 | 0.00 | 0.00 | 0.00 | 59 | 1014.1 |
| 20260507090523 | 57 | 226 | 5.0 | 10.0 | 0.00 | 0.00 | 0.00 | 56 | 1014.0 |
| 20260507090038 | 57 | 175 | 2.0 | 8.0 | 0.00 | 0.00 | 0.00 | 57 | 1013.9 |
| 20260507085526 | 58 | 196 | 5.0 | 9.0 | 0.00 | 0.00 | 0.00 | 57 | 1013.9 |
| 20260507085035 | 58 | 204 | 4.0 | 10.0 | 0.00 | 0.00 | 0.00 | 57 | 1013.7 |
| 20260507084532 | 58 | 188 | 7.0 | 10.0 | 0.00 | 0.00 | 0.00 | 58 | 1013.7 |
| 20260507084020 | 58 | 204 | 4.0 | 9.0 | 0.00 | 0.00 | 0.00 | 59 | 1013.9 |
| 20260507083533 | 58 | 184 | 6.0 | 10.0 | 0.00 | 0.00 | 0.00 | 57 | 1013.7 |
| 20260507083032 | 58 | 185 | 3.0 | 8.0 | 0.00 | 0.00 | 0.00 | 55 | 1013.6 |
| 20260507082537 | 59 | 199 | 5.0 | 12.0 | 0.00 | 0.00 | 0.00 | 56 | 1013.5 |
| 20260507082027 | 59 | 221 | 7.0 | 12.0 | 0.00 | 0.00 | 0.00 | 57 | 1013.3 |
| 20260507081521 | 59 | 178 | 6.0 | 10.0 | 0.00 | 0.00 | 0.00 | 57 | 1013.3 |
| 20260507081031 | 59 | 195 | 6.0 | 11.0 | 0.00 | 0.00 | 0.00 | 56 | 1013.4 |
| 20260507080521 | 59 | 169 | 8.0 | 13.0 | 0.00 | 0.00 | 0.00 | 56 | 1013.3 |
| 20260507080043 | 59 | 154 | 8.0 | 13.0 | 0.00 | 0.00 | 0.00 | 56 | 1013.3 |
| 20260507075529 | 60 | 198 | 9.0 | 17.0 | 0.00 | 0.00 | 0.00 | 58 | 1013.2 |
| 20260507075024 | 60 | 211 | 11.0 | 17.0 | 0.00 | 0.00 | 0.00 | 57 | 1012.9 |
| 20260507074537 | 60 | 220 | 10.0 | 14.0 | 0.00 | 0.00 | 0.00 | 55 | 1013.0 |
| 20260507074024 | 60 | 207 | 6.0 | 10.0 | 0.00 | 0.00 | 0.00 | 56 | 1013.0 |
| 20260507073534 | 61 | 113 | 3.0 | 9.0 | 0.00 | 0.00 | 0.00 | 56 | 1012.9 |
| 20260507073028 | 61 | 360 | 1.0 | 7.0 | 0.00 | 0.00 | 0.00 | 56 | 1012.9 |
| 20260507072539 | 61 | 183 | 1.0 | 6.0 | 0.00 | 0.00 | 0.00 | 55 | 1013.0 |
| 20260507072029 | 61 | 35 | 2.0 | 6.0 | 0.00 | 0.00 | 0.00 | 54 | 1012.9 |
| 20260507071524 | 62 | 152 | 2.0 | 4.0 | 0.00 | 0.00 | 0.00 | 53 | 1012.9 |
| 20260507071038 | 62 | 178 | 1.0 | 6.0 | 0.00 | 0.00 | 0.00 | 53 | 1012.8 |
| 20260507070524 | 62 | 177 | 3.0 | 8.0 | 0.00 | 0.00 | 0.00 | 52 | 1012.8 |
| 20260507070037 | 62 | 228 | 5.0 | 8.0 | 0.00 | 0.00 | 0.00 | 53 | 1012.7 |
| 20260507065529 | 62 | 192 | 3.0 | 5.0 | 0.00 | 0.00 | 0.00 | 56 | 1012.7 |
| 20260507065022 | 62 | 153 | 2.0 | 4.0 | 0.00 | 0.00 | 0.00 | 55 | 1012.7 |
| 20260507064518 | 62 | 171 | 2.0 | 4.0 | 0.00 | 0.00 | 0.00 | 55 | 1012.8 |
| 20260507064029 | 62 | 95 | 0.0 | 4.0 | 0.00 | 0.00 | 0.00 | 58 | 1012.8 |
| 20260507063537 | 62 | 202 | 0.0 | 6.0 | 0.00 | 0.00 | 0.00 | 55 | 1012.7 |
| 20260507063036 | 62 | 238 | 3.0 | 6.0 | 0.00 | 0.00 | 0.00 | 55 | 1012.6 |
| 20260507062524 | 62 | 223 | 2.0 | 6.0 | 0.00 | 0.00 | 0.00 | 60 | 1012.6 |
| 20260507062034 | 62 | 262 | 1.0 | 4.0 | 0.00 | 0.00 | 0.00 | 58 | 1012.5 |
| 20260507061532 | 62 | 86 | 1.0 | 3.0 | 0.00 | 0.00 | 0.00 | 58 | 1012.5 |
| 20260507061019 | 62 | 141 | 0.0 | 3.0 | 0.00 | 0.00 | 0.00 | 57 | 1012.5 |
| 20260507060530 | 62 | 109 | 0.0 | 3.0 | 0.00 | 0.00 | 0.00 | 62 | 1012.5 |
| 20260507060026 | 63 | 190 | 1.0 | 6.0 | 0.00 | 0.00 | 0.00 | 61 | 1012.5 |
| 20260507055534 | 64 | 194 | 2.0 | 6.0 | 0.00 | 0.00 | 0.00 | 58 | 1012.6 |
| 20260507055025 | 64 | 149 | 1.0 | 4.0 | 0.00 | 0.00 | 0.00 | 58 | 1012.6 |
| 20260507054530 | 64 | 84 | 1.0 | 4.0 | 0.00 | 0.00 | 0.00 | 60 | 1012.6 |
| 20260507054030 | 63 | 190 | 1.0 | 4.0 | 0.00 | 0.00 | 0.00 | 60 | 1012.5 |
| 20260507053526 | 63 | 19 | 1.0 | 4.0 | 0.00 | 0.00 | 0.00 | 61 | 1012.6 |
| 20260507053024 | 63 | 30 | 1.0 | 3.0 | 0.00 | 0.00 | 0.00 | 62 | 1012.4 |
| 20260507052534 | 64 | 322 | 0.0 | 3.0 | 0.00 | 0.00 | 0.00 | 62 | 1012.3 |
| 20260507052021 | 64 | 36 | 1.0 | 4.0 | 0.00 | 0.00 | 0.00 | 62 | 1012.2 |
| 20260507051536 | 64 | 355 | 1.0 | 6.0 | 0.00 | 0.00 | 0.00 | 62 | 1012.1 |
| 20260507051030 | 65 | 192 | 3.0 | 6.0 | 0.00 | 0.00 | 0.00 | 58 | 1012.2 |
| 20260507050534 | 65 | 188 | 3.0 | 5.0 | 0.00 | 0.00 | 0.00 | 58 | 1012.2 |
| 20260507050032 | 64 | 207 | 3.0 | 7.0 | 0.00 | 0.00 | 0.00 | 61 | 1012.3 |
| 20260507045520 | 65 | 183 | 1.0 | 7.0 | 0.00 | 0.00 | 0.00 | 61 | 1012.3 |
| 20260507045027 | 65 | 250 | 3.0 | 8.0 | 0.00 | 0.00 | 0.00 | 61 | 1012.4 |
| 20260507044526 | 65 | 159 | 3.0 | 8.0 | 0.00 | 0.00 | 0.00 | 60 | 1012.4 |
| 20260507044035 | 66 | 163 | 2.0 | 7.0 | 0.00 | 0.00 | 0.00 | 59 | 1012.5 |
| 20260507043523 | 66 | 98 | 2.0 | 7.0 | 0.00 | 0.00 | 0.00 | 58 | 1012.4 |
| 20260507043024 | 66 | 355 | 1.0 | 4.0 | 0.00 | 0.00 | 0.00 | 58 | 1012.4 |
| 20260507042537 | 66 | 360 | 1.0 | 5.0 | 0.00 | 0.00 | 0.00 | 58 | 1012.5 |
| 20260507042024 | 66 | 90 | 2.0 | 5.0 | 0.00 | 0.00 | 0.00 | 57 | 1012.5 |
| 20260507041522 | 67 | 46 | 1.0 | 5.0 | 0.00 | 0.00 | 0.00 | 57 | 1012.6 |
| 20260507041033 | 67 | 123 | 1.0 | 7.0 | 0.00 | 0.00 | 0.00 | 57 | 1012.6 |
| 20260507040522 | 67 | 32 | 1.0 | 7.0 | 0.00 | 0.00 | 0.00 | 57 | 1012.5 |
| 20260507040017 | 67 | 324 | 1.0 | 7.0 | 0.00 | 0.00 | 0.00 | 56 | 1012.5 |
| 20260507035528 | 67 | 210 | 1.0 | 6.0 | 0.00 | 0.00 | 0.00 | 57 | 1012.3 |
| 20260507035037 | 67 | 146 | 3.0 | 7.0 | 0.00 | 0.00 | 0.00 | 57 | 1012.4 |
| 20260507034538 | 67 | 355 | 2.0 | 7.0 | 0.00 | 0.00 | 0.00 | 57 | 1012.2 |
| 20260507034023 | 67 | 350 | 2.0 | 8.0 | 0.00 | 0.00 | 0.00 | 57 | 1012.1 |
| 20260507033534 | 67 | 41 | 1.0 | 5.0 | 0.00 | 0.00 | 0.00 | 58 | 1012.1 |
| 20260507033032 | 67 | 192 | 1.0 | 4.0 | 0.00 | 0.00 | 0.00 | 59 | 1012.2 |
| 20260507032539 | 67 | 87 | 1.0 | 7.0 | 0.00 | 0.00 | 0.00 | 57 | 1012.2 |
| 20260507032033 | 68 | 241 | 1.0 | 9.0 | 0.00 | 0.00 | 0.00 | 56 | 1012.3 |
| 20260507031527 | 68 | 80 | 4.0 | 9.0 | 0.00 | 0.00 | 0.00 | 56 | 1012.3 |
| 20260507031041 | 68 | 36 | 1.0 | 4.0 | 0.00 | 0.00 | 0.00 | 57 | 1012.3 |
| 20260507030526 | 68 | 19 | 1.0 | 7.0 | 0.00 | 0.00 | 0.00 | 56 | 1012.5 |
| 20260507030020 | 68 | 181 | 2.0 | 8.0 | 0.00 | 0.00 | 0.00 | 56 | 1012.4 |
| 20260507025529 | 68 | 355 | 3.0 | 8.0 | 0.00 | 0.00 | 0.00 | 57 | 1012.5 |
| 20260507025018 | 68 | 27 | 1.0 | 7.0 | 0.00 | 0.00 | 0.00 | 56 | 1012.4 |
| 20260507024536 | 68 | 25 | 1.0 | 7.0 | 0.00 | 0.00 | 0.00 | 55 | 1012.5 |
| 20260507024023 | 68 | 180 | 2.0 | 8.0 | 0.00 | 0.00 | 0.00 | 56 | 1012.5 |
| 20260507023536 | 68 | 323 | 2.0 | 12.0 | 0.00 | 0.00 | 0.00 | 55 | 1012.5 |
| 20260507023034 | 70 | 214 | 6.0 | 13.0 | 0.00 | 0.00 | 0.00 | 53 | 1012.5 |
| 20260507022519 | 70 | 167 | 7.0 | 13.0 | 0.00 | 0.00 | 0.00 | 51 | 1012.6 |
| 20260507022029 | 70 | 200 | 8.0 | 11.0 | 0.00 | 0.00 | 0.00 | 52 | 1012.5 |
| 20260507021526 | 69 | 184 | 7.0 | 11.0 | 0.00 | 0.00 | 0.00 | 53 | 1012.6 |
| 20260507021018 | 69 | 185 | 7.0 | 9.0 | 0.00 | 0.00 | 0.00 | 54 | 1012.6 |
| 20260507020528 | 69 | 102 | 4.0 | 8.0 | 0.00 | 0.00 | 0.00 | 54 | 1012.6 |
| 20260507020028 | 69 | 167 | 5.0 | 9.0 | 0.00 | 0.00 | 0.00 | 54 | 1012.6 |
| 20260507015534 | 69 | 223 | 5.0 | 11.0 | 0.00 | 0.00 | 0.00 | 53 | 1012.7 |
| 20260507015022 | 69 | 203 | 4.0 | 9.0 | 0.00 | 0.00 | 0.00 | 55 | 1012.8 |
| 20260507014528 | 69 | 166 | 3.0 | 7.0 | 0.00 | 0.00 | 0.00 | 54 | 1012.8 |
| 20260507014029 | 70 | 190 | 3.0 | 7.0 | 0.00 | 0.00 | 0.00 | 52 | 1012.9 |
| 20260507013539 | 70 | 360 | 3.0 | 9.0 | 0.00 | 0.00 | 0.00 | 51 | 1012.8 |
| 20260507013047 | 71 | 155 | 4.0 | 10.0 | 0.00 | 0.00 | 0.00 | 49 | 1012.9 |
| 20260507012523 | 71 | 175 | 4.0 | 10.0 | 0.00 | 0.00 | 0.00 | 48 | 1012.8 |
| 20260507012034 | 72 | 183 | 6.0 | 11.0 | 0.00 | 0.00 | 0.00 | 47 | 1012.9 |
| 20260507011532 | 72 | 192 | 7.0 | 10.0 | 0.00 | 0.00 | 0.00 | 45 | 1013.0 |
| 20260507011019 | 72 | 202 | 7.0 | 10.0 | 0.00 | 0.00 | 0.00 | 46 | 1013.0 |
| 20260507010530 | 72 | 182 | 8.0 | 10.0 | 0.00 | 0.00 | 0.00 | 46 | 1012.9 |
| 20260507010032 | 72 | 159 | 7.0 | 10.0 | 0.00 | 0.00 | 0.00 | 45 | 1013.0 |
| 20260507005537 | 73 | 182 | 6.0 | 10.0 | 0.00 | 0.00 | 0.00 | 46 | 1012.9 |
| 20260507005026 | 73 | 207 | 7.0 | 10.0 | 0.00 | 0.00 | 0.00 | 43 | 1013.0 |
| 20260507004523 | 73 | 217 | 6.0 | 8.0 | 0.00 | 0.00 | 0.00 | 45 | 1013.1 |
| 20260507004033 | 72 | 219 | 5.0 | 10.0 | 0.00 | 0.00 | 0.00 | 46 | 1013.1 |
| 20260507003521 | 73 | 212 | 7.0 | 10.0 | 0.00 | 0.00 | 0.00 | 45 | 1013.2 |
| 20260507003043 | 73 | 199 | 6.0 | 10.0 | 0.00 | 0.00 | 0.00 | 46 | 1013.2 |
| 20260507002528 | 73 | 198 | 7.0 | 10.0 | 0.00 | 0.00 | 0.00 | 46 | 1013.1 |
| 20260507002036 | 73 | 182 | 4.0 | 12.0 | 0.00 | 0.00 | 0.00 | 47 | 1013.1 |
| 20260507001537 | 73 | 222 | 8.0 | 12.0 | 0.00 | 0.00 | 0.00 | 46 | 1013.1 |
| 20260507001022 | 73 | 199 | 7.0 | 12.0 | 0.00 | 0.00 | 0.00 | 46 | 1013.1 |
| 20260507000529 | 73 | 211 | 4.0 | 10.0 | 0.00 | 0.00 | 0.00 | 46 | 1013.1 |
| 20260507000032 | 74 | 210 | 6.0 | 10.0 | 0.00 | 0.00 | 0.00 | 43 | 1013.1 |
| 20260506235534 | 74 | 217 | 5.0 | 11.0 | 0.00 | 0.00 | 0.00 | 44 | 1013.1 |
| 20260506235027 | 74 | 213 | 5.0 | 12.0 | 0.00 | 0.00 | 0.00 | 43 | 1013.1 |
| 20260506234523 | 74 | 321 | 7.0 | 12.0 | 0.00 | 0.00 | 0.00 | 42 | 1013.0 |
| 20260506234035 | 74 | 214 | 8.0 | 13.0 | 0.00 | 0.00 | 0.00 | 42 | 1013.1 |
| 20260506233524 | 74 | 183 | 8.0 | 12.0 | 0.00 | 0.00 | 0.00 | 41 | 1013.0 |
| 20260506233022 | 73 | 210 | 9.0 | 12.0 | 0.00 | 0.00 | 0.00 | 42 | 1013.1 |
| 20260506232531 | 73 | 187 | 6.0 | 12.0 | 0.00 | 0.00 | 0.00 | 45 | 1013.2 |
| 20260506232039 | 73 | 173 | 7.0 | 11.0 | 0.00 | 0.00 | 0.00 | 46 | 1013.2 |
| 20260506231534 | 73 | 193 | 4.0 | 9.0 | 0.00 | 0.00 | 0.00 | 47 | 1013.3 |
| 20260506231025 | 72 | 221 | 7.0 | 11.0 | 0.00 | 0.00 | 0.00 | 48 | 1013.3 |
| 20260506230532 | 72 | 199 | 5.0 | 11.0 | 0.00 | 0.00 | 0.00 | 49 | 1013.5 |
| 20260506230033 | 72 | 196 | 5.0 | 12.0 | 0.00 | 0.00 | 0.00 | 47 | 1013.3 |
| 20260506225518 | 72 | 171 | 8.0 | 12.0 | 0.00 | 0.00 | 0.00 | 48 | 1013.5 |
| 20260506225030 | 73 | 222 | 6.0 | 12.0 | 0.00 | 0.00 | 0.00 | 47 | 1013.5 |
| 20260506224525 | 73 | 198 | 9.0 | 17.0 | 0.00 | 0.00 | 0.00 | 45 | 1013.5 |
| 20260506224020 | 73 | 151 | 8.0 | 17.0 | 0.00 | 0.00 | 0.00 | 47 | 1013.5 |
| 20260506223527 | 72 | 190 | 8.0 | 15.0 | 0.00 | 0.00 | 0.00 | 46 | 1013.6 |
| 20260506223029 | 72 | 196 | 10.0 | 15.0 | 0.00 | 0.00 | 0.00 | 47 | 1013.6 |
| 20260506222537 | 73 | 190 | 10.0 | 15.0 | 0.00 | 0.00 | 0.00 | 46 | 1013.7 |
| 20260506222028 | 73 | 181 | 11.0 | 15.0 | 0.00 | 0.00 | 0.00 | 46 | 1013.9 |
| 20260506221521 | 73 | 190 | 12.0 | 17.0 | 0.00 | 0.00 | 0.00 | 46 | 1013.7 |
| 20260506221031 | 73 | 182 | 12.0 | 19.0 | 0.00 | 0.00 | 0.00 | 47 | 1013.9 |
| 20260506220520 | 73 | 184 | 9.0 | 14.0 | 0.00 | 0.00 | 0.00 | 48 | 1013.9 |
| 20260506220036 | 73 | 168 | 9.0 | 16.0 | 0.00 | 0.00 | 0.00 | 47 | 1014.0 |
| 20260506215525 | 74 | 215 | 10.0 | 16.0 | 0.00 | 0.00 | 0.00 | 45 | 1014.0 |
| 20260506215037 | 74 | 191 | 7.0 | 12.0 | 0.00 | 0.00 | 0.00 | 45 | 1014.0 |
| 20260506214538 | 73 | 166 | 9.0 | 15.0 | 0.00 | 0.00 | 0.00 | 46 | 1013.9 |
| 20260506214037 | 74 | 182 | 8.0 | 15.0 | 0.00 | 0.00 | 0.00 | 46 | 1013.8 |
| 20260506213529 | 73 | 214 | 7.0 | 15.0 | 0.00 | 0.00 | 0.00 | 44 | 1013.7 |
| 20260506213024 | 73 | 200 | 11.0 | 15.0 | 0.00 | 0.00 | 0.00 | 44 | 1014.0 |
| 20260506212521 | 73 | 143 | 7.0 | 11.0 | 0.00 | 0.00 | 0.00 | 46 | 1014.1 |
| 20260506212028 | 72 | 215 | 7.0 | 10.0 | 0.00 | 0.00 | 0.00 | 47 | 1014.1 |
| 20260506211525 | 73 | 198 | 5.0 | 12.0 | 0.00 | 0.00 | 0.00 | 47 | 1014.4 |
| 20260506211035 | 72 | 188 | 9.0 | 16.0 | 0.00 | 0.00 | 0.00 | 46 | 1014.4 |
| 20260506210523 | 73 | 178 | 8.0 | 16.0 | 0.00 | 0.00 | 0.00 | 45 | 1014.4 |
| 20260506210037 | 73 | 148 | 7.0 | 14.0 | 0.00 | 0.00 | 0.00 | 46 | 1014.4 |
| 20260506205528 | 72 | 155 | 9.0 | 16.0 | 0.00 | 0.00 | 0.00 | 46 | 1014.4 |
| 20260506205034 | 72 | 193 | 11.0 | 19.0 | 0.00 | 0.00 | 0.00 | 46 | 1014.6 |
| 20260506204532 | 73 | 169 | 6.0 | 22.0 | 0.00 | 0.00 | 0.00 | 46 | 1014.5 |
| 20260506204021 | 73 | 15 | 2.0 | 11.0 | 0.00 | 0.00 | 0.00 | 46 | 1014.6 |
| 20260506203531 | 72 | 29 | 4.0 | 10.0 | 0.00 | 0.00 | 0.00 | 46 | 1014.7 |
| 20260506203025 | 72 | 205 | 3.0 | 14.0 | 0.00 | 0.00 | 0.00 | 49 | 1014.8 |
| 20260506202539 | 71 | 178 | 9.0 | 16.0 | 0.00 | 0.00 | 0.00 | 49 | 1014.9 |
| 20260506202029 | 72 | 128 | 8.0 | 16.0 | 0.00 | 0.00 | 0.00 | 48 | 1014.6 |
| 20260506201529 | 71 | 171 | 9.0 | 14.0 | 0.00 | 0.00 | 0.00 | 49 | 1014.8 |
| 20260506201038 | 71 | 211 | 6.0 | 13.0 | 0.00 | 0.00 | 0.00 | 50 | 1014.8 |
| 20260506200523 | 72 | 194 | 8.0 | 13.0 | 0.00 | 0.00 | 0.00 | 47 | 1014.9 |
| 20260506200018 | 73 | 217 | 3.0 | 10.0 | 0.00 | 0.00 | 0.00 | 45 | 1015.0 |
| 20260506195529 | 73 | 255 | 4.0 | 10.0 | 0.00 | 0.00 | 0.00 | 44 | 1014.9 |
| 20260506195018 | 72 | 211 | 2.0 | 5.0 | 0.00 | 0.00 | 0.00 | 44 | 1015.0 |
| 20260506194535 | 72 | 203 | 0.0 | 4.0 | 0.00 | 0.00 | 0.00 | 44 | 1015.1 |
| 20260506194027 | 71 | 190 | 1.0 | 5.0 | 0.00 | 0.00 | 0.00 | 45 | 1015.2 |
| 20260506193538 | 73 | 159 | 1.0 | 5.0 | 0.00 | 0.00 | 0.00 | 44 | 1015.2 |
| 20260506193031 | 72 | 325 | 1.0 | 4.0 | 0.00 | 0.00 | 0.00 | 45 | 1015.3 |
| 20260506192521 | 72 | 163 | 0.0 | 6.0 | 0.00 | 0.00 | 0.00 | 45 | 1015.6 |
| 20260506192030 | 70 | 180 | 1.0 | 5.0 | 0.00 | 0.00 | 0.00 | 52 | 1015.7 |
| 20260506191526 | 69 | 175 | 3.0 | 5.0 | 0.00 | 0.00 | 0.00 | 54 | 1015.7 |
| 20260506191034 | 69 | 301 | 1.0 | 6.0 | 0.00 | 0.00 | 0.00 | 51 | 1016.0 |
| 20260506190525 | 69 | 336 | 2.0 | 8.0 | 0.00 | 0.00 | 0.00 | 52 | 1015.7 |
| 20260506190022 | 68 | 275 | 2.0 | 8.0 | 0.00 | 0.00 | 0.00 | 54 | 1015.8 |
| 20260506185532 | 68 | 154 | 2.0 | 7.0 | 0.00 | 0.00 | 0.00 | 53 | 1015.8 |
| 20260506185022 | 67 | 307 | 2.0 | 5.0 | 0.00 | 0.00 | 0.00 | 51 | 1015.7 |
| 20260506184548 | 68 | 315 | 1.0 | 5.0 | 0.00 | 0.00 | 0.00 | 51 | 1015.7 |
| 20260506184026 | 67 | 243 | 1.0 | 5.0 | 0.00 | 0.00 | 0.00 | 52 | 1015.8 |
| 20260506183537 | 67 | 360 | 1.0 | 4.0 | 0.00 | 0.00 | 0.00 | 51 | 1015.8 |
| 20260506183047 | 67 | 334 | 1.0 | 4.0 | 0.00 | 0.00 | 0.00 | 51 | 1015.9 |
| 20260506182523 | 67 | 347 | 1.0 | 5.0 | 0.00 | 0.00 | 0.00 | 48 | 1015.9 |
| 20260506182032 | 67 | 40 | 2.0 | 5.0 | 0.00 | 0.00 | 0.00 | 47 | 1016.1 |
| 20260506181548 | 67 | 290 | 1.0 | 4.0 | 0.00 | 0.00 | 0.00 | 47 | 1016.1 |
| 20260506181021 | 67 | 19 | 0.0 | 3.0 | 0.00 | 0.00 | 0.00 | 46 | 1016.2 |
| 20260506180531 | 66 | 231 | 0.0 | 5.0 | 0.00 | 0.00 | 0.00 | 47 | 1016.2 |
| 20260506180029 | 66 | 297 | 1.0 | 5.0 | 0.00 | 0.00 | 0.00 | 47 | 1016.3 |
| 20260506175520 | 66 | 53 | 1.0 | 4.0 | 0.00 | 0.00 | 0.00 | 45 | 1016.3 |
| 20260506175029 | 66 | 273 | 1.0 | 4.0 | 0.00 | 0.00 | 0.00 | 44 | 1016.3 |
| 20260506174528 | 66 | 277 | 0.0 | 3.0 | 0.00 | 0.00 | 0.00 | 44 | 1016.4 |
| 20260506174034 | 66 | 331 | 0.0 | 3.0 | 0.00 | 0.00 | 0.00 | 44 | 1016.5 |
| 20260506173528 | 66 | 251 | 0.0 | 5.0 | 0.00 | 0.00 | 0.00 | 43 | 1016.6 |
| 20260506173024 | 66 | 209 | 1.0 | 5.0 | 0.00 | 0.00 | 0.00 | 43 | 1016.7 |
| 20260506172531 | 65 | 118 | 0.0 | 3.0 | 0.00 | 0.00 | 0.00 | 44 | 1016.8 |
| 20260506172021 | 65 | 320 | 0.0 | 3.0 | 0.00 | 0.00 | 0.00 | 44 | 1016.9 |
| 20260506171538 | 64 | 117 | 1.0 | 3.0 | 0.00 | 0.00 | 0.00 | 43 | 1016.8 |
| 20260506171029 | 63 | 188 | 0.0 | 2.0 | 0.00 | 0.00 | 0.00 | 47 | 1016.9 |
| 20260506170537 | 62 | 150 | 0.0 | 2.0 | 0.00 | 0.00 | 0.00 | 49 | 1016.9 |
| 20260506170038 | 62 | 144 | 0.0 | 3.0 | 0.00 | 0.00 | 0.00 | 50 | 1016.9 |
| 20260506165520 | 62 | 132 | 0.0 | 3.0 | 0.00 | 0.00 | 0.00 | 49 | 1016.9 |
| 20260506165035 | 62 | 143 | 0.0 | 2.0 | 0.00 | 0.00 | 0.00 | 47 | 1017.1 |
| 20260506164536 | 61 | 174 | 0.0 | 1.0 | 0.00 | 0.00 | 0.00 | 46 | 1017.2 |
| 20260506164022 | 61 | 148 | 0.0 | 1.0 | 0.00 | 0.00 | 0.00 | 51 | 1017.2 |
| 20260506163530 | 60 | 134 | 0.0 | 1.0 | 0.00 | 0.00 | 0.00 | 51 | 1017.3 |
| 20260506163029 | 60 | 121 | 0.0 | 1.0 | 0.00 | 0.00 | 0.00 | 51 | 1017.2 |
| 20260506162537 | 59 | 105 | 0.0 | 1.0 | 0.00 | 0.00 | 0.00 | 52 | 1017.1 |
| 20260506162026 | 59 | 92 | 0.0 | 2.0 | 0.00 | 0.00 | 0.00 | 54 | 1017.2 |
| 20260506161522 | 58 | 161 | 0.0 | 3.0 | 0.00 | 0.00 | 0.00 | 57 | 1017.2 |
| 20260506161031 | 58 | 141 | 0.0 | 3.0 | 0.00 | 0.00 | 0.00 | 58 | 1017.2 |
| 20260506160521 | 57 | 138 | 0.0 | 1.0 | 0.00 | 0.00 | 0.00 | 57 | 1017.2 |
| 20260506160037 | 57 | 70 | 0.0 | 1.0 | 0.00 | 0.00 | 0.00 | 57 | 1017.1 |
| 20260506155527 | 56 | 111 | 0.0 | 2.0 | 0.00 | 0.00 | 0.00 | 60 | 1017.1 |
| 20260506155035 | 56 | 87 | 0.0 | 1.0 | 0.00 | 0.00 | 0.00 | 63 | 1017.0 |
| 20260506154532 | 56 | 67 | 0.0 | 2.0 | 0.00 | 0.00 | 0.00 | 64 | 1017.0 |
| 20260506154027 | 55 | 237 | 0.0 | 2.0 | 0.00 | 0.00 | 0.00 | 62 | 1017.1 |
| 20260506153534 | 55 | 49 | 0.0 | 2.0 | 0.00 | 0.00 | 0.00 | 65 | 1017.1 |
| 20260506153036 | 54 | 140 | 0.0 | 1.0 | 0.00 | 0.00 | 0.00 | 67 | 1017.1 |
| 20260506152521 | 54 | 119 | 0.0 | 2.0 | 0.00 | 0.00 | 0.00 | 68 | 1017.1 |
| 20260506152033 | 54 | 209 | 0.0 | 2.0 | 0.00 | 0.00 | 0.00 | 71 | 1017.2 |
| 20260506151530 | 54 | 139 | 0.0 | 1.0 | 0.00 | 0.00 | 0.00 | 70 | 1017.2 |
| 20260506151022 | 54 | 93 | 0.0 | 1.0 | 0.00 | 0.00 | 0.00 | 70 | 1017.3 |
| 20260506150530 | 53 | 327 | 0.0 | 2.0 | 0.00 | 0.00 | 0.00 | 70 | 1017.3 |
| 20260506150029 | 53 | 140 | 0.0 | 0.0 | 0.00 | 0.00 | 0.00 | 69 | 1017.3 |
| 20260506145538 | 53 | 115 | 0.0 | 1.0 | 0.00 | 0.00 | 0.00 | 70 | 1017.3 |
| 20260506145028 | 53 | 155 | 0.0 | 3.0 | 0.00 | 0.00 | 0.00 | 70 | 1017.1 |
| 20260506144525 | 53 | 194 | 0.0 | 3.0 | 0.00 | 0.00 | 0.00 | 71 | 1017.3 |
| 20260506144032 | 53 | 177 | 0.0 | 2.0 | 0.00 | 0.00 | 0.00 | 70 | 1017.3 |
| 20260506143525 | 52 | 244 | 0.0 | 3.0 | 0.00 | 0.00 | 0.00 | 71 | 1017.3 |
| 20260506143023 | 52 | 180 | 0.0 | 3.0 | 0.00 | 0.00 | 0.00 | 71 | 1017.3 |
| 20260506142529 | 52 | 94 | 0.0 | 2.0 | 0.00 | 0.00 | 0.00 | 72 | 1017.3 |
| 20260506142020 | 52 | 256 | 0.0 | 1.0 | 0.00 | 0.00 | 0.00 | 73 | 1017.3 |
| 20260506141537 | 52 | 15 | 0.0 | 0.0 | 0.00 | 0.00 | 0.00 | 73 | 1017.3 |
| 20260506141028 | 52 | 325 | 0.0 | 1.0 | 0.00 | 0.00 | 0.00 | 74 | 1017.2 |
| 20260506140541 | 52 | 306 | 0.0 | 1.0 | 0.00 | 0.00 | 0.00 | 73 | 1017.4 |
| 20260506140030 | 51 | 329 | 0.0 | 0.0 | 0.00 | 0.00 | 0.00 | 73 | 1017.4 |
| 20260506135520 | 51 | 314 | 0.0 | 2.0 | 0.00 | 0.00 | 0.00 | 73 | 1017.3 |
| 20260506135028 | 51 | 101 | 0.0 | 2.0 | 0.00 | 0.00 | 0.00 | 73 | 1017.3 |
| 20260506134528 | 50 | 85 | 0.0 | 2.0 | 0.00 | 0.00 | 0.00 | 75 | 1017.3 |
| 20260506134041 | 50 | 142 | 0.0 | 3.0 | 0.00 | 0.00 | 0.00 | 76 | 1017.3 |
| 20260506133525 | 50 | 104 | 0.0 | 2.0 | 0.00 | 0.00 | 0.00 | 79 | 1017.4 |
| 20260506133024 | 49 | 105 | 0.0 | 2.0 | 0.00 | 0.00 | 0.00 | 82 | 1017.3 |
| 20260506132518 | 47 | 103 | 0.0 | 4.0 | 0.00 | 0.00 | 0.00 | 85 | 1017.2 |
| 20260506132028 | 46 | 194 | 2.0 | 4.0 | 0.00 | 0.00 | 0.00 | 86 | 1017.2 |
| 20260506131534 | 46 | 213 | 1.0 | 4.0 | 0.00 | 0.00 | 0.00 | 87 | 1017.1 |
| 20260506131034 | 45 | 271 | 0.0 | 4.0 | 0.00 | 0.00 | 0.00 | 87 | 1017.1 |
| 20260506130526 | 45 | 245 | 2.0 | 4.0 | 0.00 | 0.00 | 0.00 | 87 | 1017.1 |
| 20260506130022 | 45 | 234 | 0.0 | 2.0 | 0.00 | 0.00 | 0.00 | 88 | 1017.1 |
| 20260506125530 | 45 | 242 | 0.0 | 0.0 | 0.00 | 0.00 | 0.00 | 88 | 1017.0 |
| 20260506125020 | 45 | 237 | 0.0 | 0.0 | 0.00 | 0.00 | 0.00 | 88 | 1017.0 |
| 20260506124518 | 45 | 264 | 0.0 | 3.0 | 0.00 | 0.00 | 0.00 | 88 | 1017.0 |
| 20260506124030 | 45 | 272 | 0.0 | 3.0 | 0.00 | 0.00 | 0.00 | 89 | 1016.9 |
| 20260506123538 | 45 | 251 | 0.0 | 3.0 | 0.00 | 0.00 | 0.00 | 88 | 1016.9 |
| 20260506123034 | 45 | 211 | 0.0 | 3.0 | 0.00 | 0.00 | 0.00 | 87 | 1016.9 |
| 20260506122524 | 45 | 245 | 0.0 | 3.0 | 0.00 | 0.00 | 0.00 | 88 | 1016.8 |
| 20260506122031 | 46 | 240 | 2.0 | 4.0 | 0.00 | 0.00 | 0.00 | 87 | 1016.7 |
| 20260506121527 | 46 | 246 | 0.0 | 4.0 | 0.00 | 0.00 | 0.00 | 88 | 1016.7 |
| 20260506121024 | 46 | 234 | 1.0 | 3.0 | 0.00 | 0.00 | 0.00 | 88 | 1016.7 |
| 20260506120534 | 46 | 248 | 1.0 | 3.0 | 0.00 | 0.00 | 0.00 | 89 | 1016.7 |
| 20260506120028 | 46 | 229 | 0.0 | 1.0 | 0.00 | 0.00 | 0.00 | 89 | 1016.6 |
| 20260506115536 | 46 | 242 | 0.0 | 4.0 | 0.00 | 0.00 | 0.00 | 88 | 1016.6 |
| 20260506115026 | 46 | 219 | 1.0 | 4.0 | 0.00 | 0.00 | 0.00 | 88 | 1016.6 |
| 20260506114527 | 46 | 242 | 2.0 | 4.0 | 0.00 | 0.00 | 0.00 | 88 | 1016.7 |
| 20260506114035 | 46 | 238 | 0.0 | 4.0 | 0.00 | 0.00 | 0.00 | 88 | 1016.7 |
| 20260506113523 | 46 | 236 | 2.0 | 4.0 | 0.00 | 0.00 | 0.00 | 88 | 1016.6 |
| 20260506113033 | 46 | 234 | 1.0 | 5.0 | 0.00 | 0.00 | 0.00 | 87 | 1016.8 |
| 20260506112527 | 46 | 238 | 2.0 | 5.0 | 0.00 | 0.00 | 0.00 | 87 | 1016.8 |
| 20260506112019 | 46 | 232 | 2.0 | 4.0 | 0.00 | 0.00 | 0.00 | 86 | 1016.7 |
| 20260506111535 | 46 | 222 | 2.0 | 4.0 | 0.00 | 0.00 | 0.00 | 86 | 1016.8 |
| 20260506111026 | 46 | 221 | 0.0 | 3.0 | 0.00 | 0.00 | 0.00 | 85 | 1016.7 |
| 20260506110520 | 46 | 265 | 2.0 | 3.0 | 0.00 | 0.00 | 0.00 | 86 | 1016.7 |
| 20260506110036 | 46 | 232 | 1.0 | 4.0 | 0.00 | 0.00 | 0.00 | 86 | 1016.7 |
| 20260506105527 | 46 | 238 | 2.0 | 5.0 | 0.00 | 0.00 | 0.00 | 86 | 1016.7 |
| 20260506105037 | 46 | 246 | 1.0 | 5.0 | 0.00 | 0.00 | 0.00 | 85 | 1016.7 |
| 20260506104535 | 47 | 258 | 2.0 | 5.0 | 0.00 | 0.00 | 0.00 | 85 | 1016.7 |
| 20260506104022 | 47 | 236 | 0.0 | 5.0 | 0.00 | 0.00 | 0.00 | 86 | 1016.7 |
| 20260506103536 | 47 | 232 | 1.0 | 4.0 | 0.00 | 0.00 | 0.00 | 86 | 1016.6 |
| 20260506103031 | 47 | 235 | 1.0 | 3.0 | 0.00 | 0.00 | 0.00 | 86 | 1016.5 |
| 20260506102521 | 47 | 246 | 1.0 | 3.0 | 0.00 | 0.00 | 0.00 | 85 | 1016.6 |
| 20260506102030 | 47 | 234 | 1.0 | 3.0 | 0.00 | 0.00 | 0.00 | 85 | 1016.6 |
| 20260506101528 | 48 | 224 | 1.0 | 3.0 | 0.00 | 0.00 | 0.00 | 84 | 1016.7 |
| 20260506101019 | 48 | 258 | 0.0 | 3.0 | 0.00 | 0.00 | 0.00 | 85 | 1016.6 |
| 20260506100628 | 47 | 232 | 0.0 | 4.0 | 0.00 | 0.00 | 0.00 | 84 | 1016.6 |
| 20260506100024 | 48 | 210 | 2.0 | 5.0 | 0.00 | 0.00 | 0.00 | 81 | 1016.5 |
| 20260506095538 | 48 | 252 | 2.0 | 5.0 | 0.00 | 0.00 | 0.00 | 80 | 1016.5 |
| 20260506095027 | 49 | 215 | 1.0 | 4.0 | 0.00 | 0.00 | 0.00 | 81 | 1016.6 |
| 20260506094524 | 48 | 232 | 2.0 | 4.0 | 0.00 | 0.00 | 0.00 | 81 | 1016.6 |
| 20260506094038 | 48 | 234 | 1.0 | 3.0 | 0.00 | 0.00 | 0.00 | 81 | 1016.5 |